createdAt,value
2022-12-19T00:01:09.157Z,102183.22
2022-12-19T00:04:15.625Z,102188.59
2022-12-19T00:07:20.628Z,102187.09
2022-12-19T00:10:24.374Z,102172.47
2022-12-19T00:13:30.069Z,102156.34
2022-12-19T00:16:37.316Z,102166.63
2022-12-19T00:19:41.229Z,102149.72
2022-12-19T00:22:46.217Z,102150.72
2022-12-19T00:25:49.872Z,102150.88
2022-12-19T00:28:57.063Z,102154.38
2022-12-19T00:32:00.787Z,102151.97
2022-12-19T00:35:04.502Z,102153.66
2022-12-19T00:38:09.670Z,102151.91
2022-12-19T00:41:15.586Z,102154.88
2022-12-19T00:44:19.156Z,102151.06
2022-12-19T00:47:22.740Z,102138.75
2022-12-19T00:50:26.399Z,102140.78
2022-12-19T00:53:31.762Z,102146.25
2022-12-19T00:56:38.364Z,102135.84
2022-12-19T00:59:43.518Z,102132.78
2022-12-19T01:02:47.465Z,102111.44
2022-12-19T01:05:53.094Z,102112.56
2022-12-19T01:08:58.693Z,102109.34
2022-12-19T01:12:23.946Z,102108.41
2022-12-19T01:15:28.510Z,102107.69
2022-12-19T01:18:32.184Z,102104.31
2022-12-19T01:21:35.848Z,102111.06
2022-12-19T01:24:40.962Z,102098.38
2022-12-19T01:27:44.612Z,102092.44
2022-12-19T01:30:48.965Z,102089.63
2022-12-19T01:33:52.753Z,102080.94
2022-12-19T01:36:58.142Z,102078.44
2022-12-19T01:40:03.183Z,102088.81
2022-12-19T01:43:07.791Z,102093.34
2022-12-19T01:46:16.967Z,102079.31
2022-12-19T01:49:30.360Z,102066.63
2022-12-19T01:52:34.863Z,102056.28
2022-12-19T01:55:42.778Z,102049.19
2022-12-19T01:58:47.787Z,102039.75
2022-12-19T02:02:01.635Z,102033.88
2022-12-19T02:05:06.588Z,102028.59
2022-12-19T02:08:10.906Z,102029.63
2022-12-19T02:11:16.153Z,102038.22
2022-12-19T02:14:20.080Z,102042.59
2022-12-19T02:17:42.219Z,102035.75
2022-12-19T02:21:16.681Z,102021.25
2022-12-19T02:25:09.959Z,102010.94
2022-12-19T02:29:08.112Z,102016.22
2022-12-19T02:32:21.306Z,102019.75
2022-12-19T02:35:37.346Z,102006.97
2022-12-19T02:38:51.884Z,102002.72
2022-12-19T02:41:59.522Z,102005.69
2022-12-19T02:45:07.761Z,101997.03
2022-12-19T02:48:18.890Z,101995.31
2022-12-19T02:51:23.097Z,101986.88
2022-12-19T02:54:27.163Z,101985.94
2022-12-19T02:57:39.527Z,101989.47
2022-12-19T03:00:56.164Z,101985.31
2022-12-19T03:04:16.580Z,101985.50
2022-12-19T03:07:34.794Z,101995.03
2022-12-19T03:10:45.677Z,101993.09
2022-12-19T03:13:58.116Z,101982.91
2022-12-19T03:17:07.124Z,101981.22
2022-12-19T03:20:27.259Z,101967.53
2022-12-19T03:23:32.599Z,101966.78
2022-12-19T03:26:45.036Z,101969.41
2022-12-19T03:29:56.156Z,101968.75
2022-12-19T03:33:00.787Z,101966.34
2022-12-19T03:36:12.414Z,101956.94
2022-12-19T03:39:19.310Z,101947.44
2022-12-19T03:42:45.973Z,101941.38
2022-12-19T03:45:58.343Z,101937.13
2022-12-19T03:49:02.120Z,101928.63
2022-12-19T03:52:23.947Z,101919.13
2022-12-19T03:55:38.131Z,101920.16
2022-12-19T03:58:50.484Z,101913.31
2022-12-19T04:01:56.375Z,101910.78
2022-12-19T04:05:10.208Z,101922.13
2022-12-19T04:08:16.741Z,101917.94
2022-12-19T04:11:22.377Z,101911.88
2022-12-19T04:14:32.115Z,101912.91
2022-12-19T04:17:42.202Z,101908.59
2022-12-19T04:20:56.641Z,101900.19
2022-12-19T04:24:10.701Z,101895.13
2022-12-19T04:27:15.696Z,101885.69
2022-12-19T04:30:20.855Z,101878.06
2022-12-19T04:33:24.519Z,101879.94
2022-12-19T04:36:28.482Z,101873.97
2022-12-19T04:39:34.027Z,101866.16
2022-12-19T04:42:38.050Z,101860.19
2022-12-19T04:45:43.158Z,101855.00
2022-12-19T04:48:46.851Z,101847.41
2022-12-19T04:51:50.734Z,101847.34
2022-12-19T04:54:55.831Z,101827.69
2022-12-19T04:58:06.833Z,101827.59
2022-12-19T05:01:11.118Z,101824.47
2022-12-19T05:04:14.800Z,101827.84
2022-12-19T05:07:21.505Z,101814.19
2022-12-19T05:10:26.682Z,101798.72
2022-12-19T05:13:30.619Z,101802.97
2022-12-19T05:16:34.466Z,101806.44
2022-12-19T05:19:38.150Z,101799.47
2022-12-19T05:22:41.858Z,101802.19
2022-12-19T05:25:47.186Z,101800.38
2022-12-19T05:29:00.985Z,101787.72
2022-12-19T05:32:04.652Z,101791.16
2022-12-19T05:35:09.110Z,101787.00
2022-12-19T05:38:12.856Z,101788.59
2022-12-19T05:41:21.057Z,101792.03
2022-12-19T05:44:24.772Z,101783.41
2022-12-19T05:47:28.784Z,101792.16
2022-12-19T05:50:32.588Z,101788.00
2022-12-19T05:53:37.844Z,101778.44
2022-12-19T05:56:43.936Z,101766.59
2022-12-19T05:59:47.593Z,101768.31
2022-12-19T06:02:51.301Z,101770.06
2022-12-19T06:05:55.073Z,101774.34
2022-12-19T06:09:00.647Z,101758.88
2022-12-19T06:12:06.215Z,101753.88
2022-12-19T06:15:11.427Z,101762.56
2022-12-19T06:18:14.945Z,101749.72
2022-12-19T06:21:21.861Z,101748.91
2022-12-19T06:24:26.818Z,101746.19
2022-12-19T06:27:31.793Z,101740.28
2022-12-19T06:30:35.523Z,101742.00
2022-12-19T06:33:39.235Z,101748.00
2022-12-19T06:36:43.159Z,101734.28
2022-12-19T06:39:47.371Z,101731.63
2022-12-19T06:42:51.670Z,101731.72
2022-12-19T06:45:55.408Z,101721.38
2022-12-19T06:48:59.323Z,101720.69
2022-12-19T06:52:09.014Z,101720.66
2022-12-19T06:55:12.968Z,101706.16
2022-12-19T06:58:22.724Z,101717.28
2022-12-19T07:01:50.274Z,101707.03
2022-12-19T07:05:03.023Z,101711.31
2022-12-19T07:08:07.469Z,101710.47
2022-12-19T07:11:11.917Z,101719.03
2022-12-19T07:14:16.880Z,101721.69
2022-12-19T07:17:21.854Z,101725.06
2022-12-19T07:20:25.537Z,101714.19
2022-12-19T07:23:30.545Z,101709.91
2022-12-19T07:26:34.652Z,101721.94
2022-12-19T07:29:40.098Z,101715.94
2022-12-19T07:32:43.732Z,101716.06
2022-12-19T07:35:47.335Z,101712.59
2022-12-19T07:38:51.052Z,101723.81
2022-12-19T07:41:54.791Z,101712.69
2022-12-19T07:44:59.764Z,101710.09
2022-12-19T07:48:04.715Z,101713.50
2022-12-19T07:51:08.660Z,101717.06
2022-12-19T07:54:12.462Z,101704.19
2022-12-19T07:57:16.099Z,101703.44
2022-12-19T08:00:22.038Z,101699.22
2022-12-19T08:03:26.018Z,101700.84
2022-12-19T08:06:29.818Z,101687.16
2022-12-19T08:09:34.134Z,101694.94
2022-12-19T08:12:37.727Z,101684.63
2022-12-19T08:15:42.741Z,101690.56
2022-12-19T08:18:48.006Z,101686.38
2022-12-19T08:21:51.802Z,101678.72
2022-12-19T08:24:55.448Z,101687.25
2022-12-19T08:27:59.076Z,101688.22
2022-12-19T08:31:09.193Z,101679.84
2022-12-19T08:34:13.163Z,101682.31
2022-12-19T08:37:17.070Z,101680.81
2022-12-19T08:40:22.038Z,101689.38
2022-12-19T08:43:27.631Z,101673.94
2022-12-19T08:46:33.218Z,101684.19
2022-12-19T08:49:36.994Z,101678.25
2022-12-19T08:52:40.724Z,101685.19
2022-12-19T08:55:44.593Z,101677.44
2022-12-19T08:58:48.703Z,101679.19
2022-12-19T09:01:53.829Z,101668.25
2022-12-19T09:05:58.655Z,101680.28
2022-12-19T09:08:21.131Z,101674.38
2022-12-19T09:11:26.141Z,101667.31
2022-12-19T09:14:34.287Z,101673.44
2022-12-19T09:17:39.473Z,101676.84
2022-12-19T09:20:43.329Z,101674.44
2022-12-19T09:23:50.769Z,101662.38
2022-12-19T09:26:54.387Z,101665.88
2022-12-19T09:29:57.962Z,101676.16
2022-12-19T09:33:03.051Z,101665.34
2022-12-19T09:36:09.926Z,101663.97
2022-12-19T09:39:14.025Z,101653.44
2022-12-19T09:43:01.679Z,101654.34
2022-12-19T09:46:17.781Z,101654.31
2022-12-19T09:49:26.386Z,101650.97
2022-12-19T09:52:37.139Z,101656.75
2022-12-19T09:55:43.975Z,101644.81
2022-12-19T09:58:54.917Z,101640.50
2022-12-19T10:02:22.123Z,101642.31
2022-12-19T10:06:53.229Z,101644.00
2022-12-19T10:10:52.871Z,101641.50
2022-12-19T10:13:12.898Z,101638.00
2022-12-19T10:16:28.265Z,101637.19
2022-12-19T10:19:45.774Z,101645.88
2022-12-19T10:23:29.160Z,101641.72
2022-12-19T10:26:46.394Z,101634.00
2022-12-19T10:30:04.872Z,101633.03
2022-12-19T10:33:22.766Z,101626.25
2022-12-19T10:36:56.013Z,101634.81
2022-12-19T10:40:14.664Z,101627.16
2022-12-19T10:43:47.784Z,101628.03
2022-12-19T10:46:53.256Z,101628.97
2022-12-19T10:49:56.957Z,101616.19
2022-12-19T10:53:11.481Z,101621.38
2022-12-19T10:56:29.269Z,101618.69
2022-12-19T10:59:37.100Z,101608.44
2022-12-19T11:02:45.646Z,101614.59
2022-12-19T11:05:58.002Z,101612.00
2022-12-19T11:09:22.988Z,101608.59
2022-12-19T11:16:04.344Z,101609.53
2022-12-19T11:22:04.822Z,101604.28
2022-12-19T11:29:17.531Z,101607.88
2022-12-19T11:29:31.089Z,101605.34
2022-12-19T11:30:21.353Z,101601.91
2022-12-19T11:33:48.616Z,101590.75
2022-12-19T11:36:59.593Z,101585.56
2022-12-19T11:40:11.934Z,101583.00
2022-12-19T11:43:45.127Z,101582.19
2022-12-19T11:47:00.005Z,101585.72
2022-12-19T11:50:15.864Z,101585.72
2022-12-19T11:53:29.241Z,101573.66
2022-12-19T11:56:33.841Z,101574.69
2022-12-19T11:59:40.965Z,101575.50
2022-12-19T12:03:19.931Z,101573.75
2022-12-19T12:06:31.433Z,101580.72
2022-12-19T12:11:58.586Z,101573.78
2022-12-19T12:24:05.063Z,101560.03
2022-12-19T12:29:04.078Z,101554.94
2022-12-19T12:31:11.037Z,101551.56
2022-12-19T12:32:02.056Z,101546.47
2022-12-19T12:32:04.831Z,101543.84
2022-12-19T12:35:54.025Z,101536.91
2022-12-19T12:39:18.193Z,101548.16
2022-12-19T12:42:49.772Z,101549.06
2022-12-19T12:45:53.872Z,101530.88
2022-12-19T12:49:03.584Z,101540.44
2022-12-19T12:52:15.549Z,101534.34
2022-12-19T12:55:29.935Z,101536.97
2022-12-19T12:59:07.290Z,101535.25
2022-12-19T13:02:22.220Z,101533.53
2022-12-19T13:05:54.576Z,101539.56
2022-12-19T13:09:06.915Z,101536.97
2022-12-19T13:12:40.131Z,101536.97
2022-12-19T13:15:45.837Z,101525.72
2022-12-19T13:19:20.967Z,101532.63
2022-12-19T13:22:42.890Z,101523.13
2022-12-19T13:25:54.684Z,101530.91
2022-12-19T13:29:28.964Z,101523.13
2022-12-19T13:33:17.014Z,101526.56
2022-12-19T13:39:54.401Z,101530.06
2022-12-19T13:41:23.126Z,101529.19
2022-12-19T13:44:27.187Z,101532.66
2022-12-19T13:47:36.669Z,101520.53
2022-12-19T13:50:42.989Z,101517.91
2022-12-19T13:53:46.878Z,101515.31
2022-12-19T13:56:53.181Z,101516.22
2022-12-19T14:00:03.946Z,101524.00
2022-12-19T14:03:18.500Z,101517.94
2022-12-19T14:06:26.353Z,101513.56
2022-12-19T14:11:28.109Z,101515.31
2022-12-19T14:13:57.122Z,101519.63
2022-12-19T14:16:48.281Z,101515.25
2022-12-19T14:19:55.095Z,101512.66
2022-12-19T14:23:25.529Z,101509.16
2022-12-19T14:28:20.448Z,101507.47
2022-12-19T14:30:28.859Z,101505.72
2022-12-19T14:33:58.500Z,101510.94
2022-12-19T14:37:05.539Z,101509.16
2022-12-19T14:40:23.570Z,101515.22
2022-12-19T14:43:56.293Z,101516.09
2022-12-19T14:54:08.628Z,101511.75
2022-12-19T14:54:26.177Z,101513.41
2022-12-19T14:58:51.320Z,101513.47
2022-12-19T15:01:25.085Z,101498.72
2022-12-19T15:04:50.295Z,101496.09
2022-12-19T15:08:01.367Z,101493.50
2022-12-19T15:11:41.407Z,101496.13
2022-12-19T15:14:58.980Z,101492.63
2022-12-19T15:18:19.926Z,101489.13
2022-12-19T15:21:25.653Z,101490.75
2022-12-19T15:24:30.300Z,101483.91
2022-12-19T15:27:35.208Z,101486.53
2022-12-19T15:30:42.298Z,101478.72
2022-12-19T15:34:07.206Z,101470.00
2022-12-19T15:37:15.324Z,101468.25
2022-12-19T15:40:19.989Z,101471.75
2022-12-19T15:44:01.703Z,101472.56
2022-12-19T15:46:50.479Z,101471.72
2022-12-19T15:49:54.186Z,101461.31
2022-12-19T15:53:02.364Z,101462.00
2022-12-19T15:56:16.083Z,101458.66
2022-12-19T15:59:36.387Z,101456.13
2022-12-19T16:03:23.399Z,101450.03
2022-12-19T16:06:06.999Z,101443.00
2022-12-19T16:09:23.754Z,101444.81
2022-12-19T16:12:39.471Z,101439.47
2022-12-19T16:15:43.441Z,101446.50
2022-12-19T16:18:47.705Z,101432.56
2022-12-19T16:21:51.924Z,101437.84
2022-12-19T16:24:57.397Z,101438.66
2022-12-19T16:28:03.227Z,101440.47
2022-12-19T16:31:17.740Z,101447.38
2022-12-19T16:34:25.309Z,101433.47
2022-12-19T16:37:32.348Z,101442.19
2022-12-19T16:40:37.987Z,101439.59
2022-12-19T16:43:45.037Z,101441.38
2022-12-19T16:46:51.336Z,101437.91
2022-12-19T16:49:55.374Z,101437.88
2022-12-19T16:52:59.665Z,101435.31
2022-12-19T16:56:06.489Z,101443.13
2022-12-19T16:59:19.014Z,101446.59
2022-12-19T17:02:43.445Z,101444.03
2022-12-19T17:05:47.391Z,101451.75
2022-12-19T17:08:51.335Z,101455.28
2022-12-19T17:12:00.794Z,101456.13
2022-12-19T17:15:07.861Z,101465.69
2022-12-19T17:18:17.496Z,101479.56
2022-12-19T17:21:23.994Z,101480.44
2022-12-19T17:24:27.745Z,101469.19
2022-12-19T17:27:33.528Z,101463.13
2022-12-19T17:30:38.911Z,101448.34
2022-12-19T17:33:43.277Z,101458.78
2022-12-19T17:36:47.426Z,101447.50
2022-12-19T17:39:51.244Z,101435.38
2022-12-19T17:42:57.510Z,101437.09
2022-12-19T17:46:01.410Z,101431.03
2022-12-19T17:49:05.647Z,101433.63
2022-12-19T17:52:16.192Z,101419.78
2022-12-19T17:55:24.079Z,101418.94
2022-12-19T17:58:29.912Z,101418.03
2022-12-19T18:01:36.619Z,101420.63
2022-12-19T18:04:40.325Z,101416.31
2022-12-19T18:07:44.051Z,101435.44
2022-12-19T18:10:47.641Z,101425.00
2022-12-19T18:13:54.582Z,101424.16
2022-12-19T18:16:58.602Z,101431.97
2022-12-19T18:20:03.460Z,101454.50
2022-12-19T18:23:17.911Z,101450.16
2022-12-19T18:26:21.867Z,101458.84
2022-12-19T18:29:26.871Z,101441.50
2022-12-19T18:32:30.847Z,101441.47
2022-12-19T18:35:38.365Z,101454.50
2022-12-19T18:38:42.078Z,101451.88
2022-12-19T18:41:45.772Z,101450.13
2022-12-19T18:44:51.097Z,101457.06
2022-12-19T18:47:59.911Z,101451.88
2022-12-19T18:51:05.332Z,101448.34
2022-12-19T18:54:15.209Z,101436.25
2022-12-19T18:57:19.573Z,101448.31
2022-12-19T19:00:28.004Z,101440.50
2022-12-19T19:03:36.118Z,101428.34
2022-12-19T19:06:46.434Z,101425.75
2022-12-19T19:09:54.055Z,101418.81
2022-12-19T19:13:02.673Z,101432.66
2022-12-19T19:16:20.003Z,101447.44
2022-12-19T19:19:23.895Z,101447.47
2022-12-19T19:22:28.232Z,101445.75
2022-12-19T19:25:32.130Z,101447.53
2022-12-19T19:28:38.495Z,101444.94
2022-12-19T19:31:48.586Z,101452.81
2022-12-19T19:34:55.685Z,101441.53
2022-12-19T19:38:07.535Z,101445.88
2022-12-19T19:41:11.245Z,101451.06
2022-12-19T19:44:14.981Z,101448.47
2022-12-19T19:47:27.141Z,101451.88
2022-12-19T19:50:31.625Z,101457.13
2022-12-19T19:53:36.130Z,101453.59
2022-12-19T19:56:40.151Z,101441.44
2022-12-19T19:59:43.693Z,101447.53
2022-12-19T20:02:49.597Z,101441.44
2022-12-19T20:06:00.915Z,101432.81
2022-12-19T20:09:05.196Z,101431.94
2022-12-19T20:12:08.946Z,101431.09
2022-12-19T20:15:13.183Z,101439.75
2022-12-19T20:18:18.482Z,101437.09
2022-12-19T20:21:23.976Z,101438.84
2022-12-19T20:24:28.193Z,101431.88
2022-12-19T20:27:31.859Z,101436.22
2022-12-19T20:30:35.540Z,101446.72
2022-12-19T20:33:41.123Z,101446.72
2022-12-19T20:36:44.805Z,101458.03
2022-12-19T20:39:48.548Z,101462.38
2022-12-19T20:42:52.159Z,101453.69
2022-12-19T20:46:03.116Z,101456.31
2022-12-19T20:49:08.280Z,101465.84
2022-12-19T20:52:11.985Z,101465.03
2022-12-19T20:55:16.000Z,101464.16
2022-12-19T20:58:19.716Z,101478.91
2022-12-19T21:01:26.049Z,101475.44
2022-12-19T21:04:31.997Z,101484.13
2022-12-19T21:07:35.757Z,101477.16
2022-12-19T21:10:39.449Z,101473.72
2022-12-19T21:13:44.838Z,101478.03
2022-12-19T21:16:48.471Z,101472.84
2022-12-19T21:19:53.582Z,101477.16
2022-12-19T21:22:57.316Z,101472.81
2022-12-19T21:26:04.246Z,101462.28
2022-12-19T21:29:07.930Z,101458.81
2022-12-19T21:32:18.453Z,101470.97
2022-12-19T21:35:24.398Z,101471.00
2022-12-19T21:38:28.688Z,101471.78
2022-12-19T21:41:33.564Z,101475.25
2022-12-19T21:44:37.515Z,101470.09
2022-12-19T21:47:42.222Z,101465.72
2022-12-19T21:50:47.480Z,101479.66
2022-12-19T21:53:56.011Z,101476.22
2022-12-19T21:56:59.631Z,101482.31
2022-12-19T22:00:05.840Z,101472.81
2022-12-19T22:03:14.787Z,101471.00
2022-12-19T22:06:28.282Z,101463.22
2022-12-19T22:09:33.199Z,101465.00
2022-12-19T22:12:36.907Z,101458.00
2022-12-19T22:15:40.484Z,101448.41
2022-12-19T22:18:44.764Z,101446.75
2022-12-19T22:21:50.146Z,101445.88
2022-12-19T22:24:53.809Z,101458.91
2022-12-19T22:27:57.576Z,101440.63
2022-12-19T22:31:01.765Z,101457.19
2022-12-19T22:34:08.091Z,101444.13
2022-12-19T22:37:13.378Z,101446.72
2022-12-19T22:40:17.283Z,101447.66
2022-12-19T22:43:20.948Z,101431.09
2022-12-19T22:46:27.737Z,101431.88
2022-12-19T22:49:31.504Z,101432.78
2022-12-19T22:52:37.684Z,101445.00
2022-12-19T22:55:41.441Z,101451.09
2022-12-19T22:58:47.999Z,101439.78
2022-12-19T23:01:51.871Z,101435.44
2022-12-19T23:04:55.660Z,101444.13
2022-12-19T23:08:00.768Z,101438.88
2022-12-19T23:11:11.005Z,101439.69
2022-12-19T23:14:17.603Z,101442.09
2022-12-19T23:17:21.260Z,101443.00
2022-12-19T23:20:24.892Z,101432.63
2022-12-19T23:23:29.878Z,101436.13
2022-12-19T23:26:38.402Z,101438.69
2022-12-19T23:29:41.995Z,101424.00
2022-12-19T23:32:50.733Z,101425.78
2022-12-19T23:35:54.870Z,101428.28
2022-12-19T23:38:59.940Z,101430.97
2022-12-19T23:42:03.602Z,101424.91
2022-12-19T23:45:09.018Z,101425.66
2022-12-19T23:48:12.605Z,101423.13
2022-12-19T23:51:19.644Z,101422.22
2022-12-19T23:54:24.590Z,101425.84
2022-12-19T23:57:28.199Z,101420.63
